sensor_id;sensor_type;location;lat;lon;timestamp;P1;durP1;ratioP1;P2;durP2;ratioP2
24357;SDS011;13668;52.154;5.580;2023-03-26T00:01:10;21.13;;;5.85;;
24357;SDS011;13668;52.154;5.580;2023-03-26T00:03:40;19.35;;;5.32;;
24357;SDS011;13668;52.154;5.580;2023-03-26T00:06:14;12.52;;;5.05;;
24357;SDS011;13668;52.154;5.580;2023-03-26T00:08:41;16.15;;;5.10;;
24357;SDS011;13668;52.154;5.580;2023-03-26T00:11:08;17.15;;;5.28;;
24357;SDS011;13668;52.154;5.580;2023-03-26T00:13:34;12.52;;;5.20;;
24357;SDS011;13668;52.154;5.580;2023-03-26T00:16:01;20.13;;;6.07;;
24357;SDS011;13668;52.154;5.580;2023-03-26T00:18:27;14.60;;;5.10;;
24357;SDS011;13668;52.154;5.580;2023-03-26T00:21:00;16.35;;;6.30;;
24357;SDS011;13668;52.154;5.580;2023-03-26T00:23:26;22.83;;;6.55;;
24357;SDS011;13668;52.154;5.580;2023-03-26T00:25:53;17.27;;;5.85;;
24357;SDS011;13668;52.154;5.580;2023-03-26T00:28:20;14.15;;;5.15;;
24357;SDS011;13668;52.154;5.580;2023-03-26T00:30:49;18.55;;;5.93;;
24357;SDS011;13668;52.154;5.580;2023-03-26T00:33:21;18.50;;;5.78;;
24357;SDS011;13668;52.154;5.580;2023-03-26T00:35:51;19.50;;;5.55;;
24357;SDS011;13668;52.154;5.580;2023-03-26T00:38:17;16.38;;;5.90;;
24357;SDS011;13668;52.154;5.580;2023-03-26T00:40:43;22.38;;;7.10;;
24357;SDS011;13668;52.154;5.580;2023-03-26T00:43:12;20.75;;;6.93;;
24357;SDS011;13668;52.154;5.580;2023-03-26T00:45:47;16.30;;;6.00;;
24357;SDS011;13668;52.154;5.580;2023-03-26T00:48:14;14.77;;;5.30;;
24357;SDS011;13668;52.154;5.580;2023-03-26T00:50:40;15.73;;;5.22;;
24357;SDS011;13668;52.154;5.580;2023-03-26T00:53:07;15.52;;;5.25;;
24357;SDS011;13668;52.154;5.580;2023-03-26T00:55:33;15.93;;;6.47;;
24357;SDS011;13668;52.154;5.580;2023-03-26T00:57:59;15.82;;;5.13;;
24357;SDS011;13668;52.154;5.580;2023-03-26T01:00:30;16.80;;;5.05;;
24357;SDS011;13668;52.154;5.580;2023-03-26T01:02:58;11.93;;;5.20;;
24357;SDS011;13668;52.154;5.580;2023-03-26T01:08:00;12.20;;;4.65;;
24357;SDS011;13668;52.154;5.580;2023-03-26T01:10:28;12.02;;;4.03;;
24357;SDS011;13668;52.154;5.580;2023-03-26T01:13:02;11.95;;;4.20;;
24357;SDS011;13668;52.154;5.580;2023-03-26T01:15:28;17.67;;;4.30;;
24357;SDS011;13668;52.154;5.580;2023-03-26T01:17:54;18.40;;;4.50;;
24357;SDS011;13668;52.154;5.580;2023-03-26T01:20:23;15.25;;;3.97;;
24357;SDS011;13668;52.154;5.580;2023-03-26T01:22:54;20.55;;;4.13;;
24357;SDS011;13668;52.154;5.580;2023-03-26T01:25:24;13.27;;;3.60;;
24357;SDS011;13668;52.154;5.580;2023-03-26T01:27:53;17.98;;;4.50;;
24357;SDS011;13668;52.154;5.580;2023-03-26T01:35:44;9.23;;;4.00;;
24357;SDS011;13668;52.154;5.580;2023-03-26T01:38:18;14.15;;;4.22;;
24357;SDS011;13668;52.154;5.580;2023-03-26T01:45:55;12.07;;;4.45;;
24357;SDS011;13668;52.154;5.580;2023-03-26T01:48:27;14.73;;;4.22;;
24357;SDS011;13668;52.154;5.580;2023-03-26T01:50:53;15.38;;;4.40;;
24357;SDS011;13668;52.154;5.580;2023-03-26T01:53:20;13.07;;;4.28;;
24357;SDS011;13668;52.154;5.580;2023-03-26T02:01:16;10.70;;;3.83;;
24357;SDS011;13668;52.154;5.580;2023-03-26T02:03:45;15.52;;;4.75;;
24357;SDS011;13668;52.154;5.580;2023-03-26T02:06:21;9.50;;;4.05;;
24357;SDS011;13668;52.154;5.580;2023-03-26T02:08:57;28.70;;;6.43;;
24357;SDS011;13668;52.154;5.580;2023-03-26T02:11:24;16.88;;;5.45;;
24357;SDS011;13668;52.154;5.580;2023-03-26T02:13:57;14.73;;;4.72;;
24357;SDS011;13668;52.154;5.580;2023-03-26T02:16:23;10.48;;;4.65;;
24357;SDS011;13668;52.154;5.580;2023-03-26T02:18:49;13.30;;;4.55;;
24357;SDS011;13668;52.154;5.580;2023-03-26T02:21:20;12.85;;;4.28;;
24357;SDS011;13668;52.154;5.580;2023-03-26T02:23:47;13.48;;;4.88;;
24357;SDS011;13668;52.154;5.580;2023-03-26T02:26:15;9.13;;;4.13;;
24357;SDS011;13668;52.154;5.580;2023-03-26T02:28:41;12.35;;;4.43;;
24357;SDS011;13668;52.154;5.580;2023-03-26T02:31:07;16.05;;;4.43;;
24357;SDS011;13668;52.154;5.580;2023-03-26T02:33:43;15.32;;;4.55;;
24357;SDS011;13668;52.154;5.580;2023-03-26T02:36:11;15.60;;;4.03;;
24357;SDS011;13668;52.154;5.580;2023-03-26T02:38:38;13.63;;;5.07;;
24357;SDS011;13668;52.154;5.580;2023-03-26T02:41:04;14.15;;;4.60;;
24357;SDS011;13668;52.154;5.580;2023-03-26T02:43:30;13.27;;;5.32;;
24357;SDS011;13668;52.154;5.580;2023-03-26T02:45:56;13.73;;;5.53;;
24357;SDS011;13668;52.154;5.580;2023-03-26T02:48:22;15.45;;;5.38;;
24357;SDS011;13668;52.154;5.580;2023-03-26T02:50:48;16.58;;;5.38;;
24357;SDS011;13668;52.154;5.580;2023-03-26T02:53:18;19.90;;;5.78;;
24357;SDS011;13668;52.154;5.580;2023-03-26T02:55:45;18.55;;;5.00;;
24357;SDS011;13668;52.154;5.580;2023-03-26T02:58:11;19.52;;;6.15;;
24357;SDS011;13668;52.154;5.580;2023-03-26T03:00:42;26.95;;;7.10;;
24357;SDS011;13668;52.154;5.580;2023-03-26T03:03:08;19.52;;;5.00;;
24357;SDS011;13668;52.154;5.580;2023-03-26T03:05:34;15.32;;;4.78;;
24357;SDS011;13668;52.154;5.580;2023-03-26T03:08:07;13.68;;;4.70;;
24357;SDS011;13668;52.154;5.580;2023-03-26T03:10:33;15.85;;;5.47;;
24357;SDS011;13668;52.154;5.580;2023-03-26T03:12:59;14.20;;;4.95;;
24357;SDS011;13668;52.154;5.580;2023-03-26T03:15:25;13.20;;;5.03;;
24357;SDS011;13668;52.154;5.580;2023-03-26T03:17:52;15.82;;;4.65;;
24357;SDS011;13668;52.154;5.580;2023-03-26T03:20:18;12.90;;;5.32;;
24357;SDS011;13668;52.154;5.580;2023-03-26T03:22:45;20.70;;;5.85;;
24357;SDS011;13668;52.154;5.580;2023-03-26T03:25:11;21.40;;;6.55;;
24357;SDS011;13668;52.154;5.580;2023-03-26T03:27:41;20.48;;;6.43;;
24357;SDS011;13668;52.154;5.580;2023-03-26T03:30:07;25.85;;;6.65;;
24357;SDS011;13668;52.154;5.580;2023-03-26T03:32:34;37.42;;;8.38;;
24357;SDS011;13668;52.154;5.580;2023-03-26T03:35:00;29.20;;;8.68;;
24357;SDS011;13668;52.154;5.580;2023-03-26T03:37:26;36.67;;;8.45;;
24357;SDS011;13668;52.154;5.580;2023-03-26T03:39:52;30.83;;;8.75;;
24357;SDS011;13668;52.154;5.580;2023-03-26T03:42:21;33.08;;;9.80;;
24357;SDS011;13668;52.154;5.580;2023-03-26T03:44:47;36.58;;;10.00;;
24357;SDS011;13668;52.154;5.580;2023-03-26T03:47:13;27.83;;;9.70;;
24357;SDS011;13668;52.154;5.580;2023-03-26T03:49:39;50.08;;;10.75;;
24357;SDS011;13668;52.154;5.580;2023-03-26T03:52:05;35.92;;;9.02;;
24357;SDS011;13668;52.154;5.580;2023-03-26T03:54:31;30.45;;;8.73;;
24357;SDS011;13668;52.154;5.580;2023-03-26T03:56:57;38.80;;;9.95;;
24357;SDS011;13668;52.154;5.580;2023-03-26T03:59:23;34.15;;;10.30;;
24357;SDS011;13668;52.154;5.580;2023-03-26T04:01:49;39.40;;;10.35;;
24357;SDS011;13668;52.154;5.580;2023-03-26T04:04:16;35.33;;;10.77;;
24357;SDS011;13668;52.154;5.580;2023-03-26T04:06:42;45.75;;;12.85;;
24357;SDS011;13668;52.154;5.580;2023-03-26T04:09:08;40.88;;;10.98;;
24357;SDS011;13668;52.154;5.580;2023-03-26T04:11:34;38.78;;;12.32;;
24357;SDS011;13668;52.154;5.580;2023-03-26T04:14:00;43.00;;;13.55;;
24357;SDS011;13668;52.154;5.580;2023-03-26T04:16:26;41.47;;;12.27;;
24357;SDS011;13668;52.154;5.580;2023-03-26T04:18:52;40.10;;;13.30;;
24357;SDS011;13668;52.154;5.580;2023-03-26T04:21:19;39.55;;;13.57;;
24357;SDS011;13668;52.154;5.580;2023-03-26T04:23:45;47.70;;;13.73;;
24357;SDS011;13668;52.154;5.580;2023-03-26T04:26:12;43.72;;;14.25;;
24357;SDS011;13668;52.154;5.580;2023-03-26T04:28:44;44.60;;;13.15;;
24357;SDS011;13668;52.154;5.580;2023-03-26T04:31:12;44.22;;;12.93;;
24357;SDS011;13668;52.154;5.580;2023-03-26T04:33:40;48.00;;;14.30;;
24357;SDS011;13668;52.154;5.580;2023-03-26T04:36:10;40.40;;;12.38;;
24357;SDS011;13668;52.154;5.580;2023-03-26T04:38:39;39.08;;;13.63;;
24357;SDS011;13668;52.154;5.580;2023-03-26T04:41:06;35.47;;;13.00;;
24357;SDS011;13668;52.154;5.580;2023-03-26T04:43:32;42.30;;;13.82;;
24357;SDS011;13668;52.154;5.580;2023-03-26T04:45:59;48.17;;;14.93;;
24357;SDS011;13668;52.154;5.580;2023-03-26T04:48:27;45.00;;;12.48;;
24357;SDS011;13668;52.154;5.580;2023-03-26T04:50:54;47.92;;;14.38;;
24357;SDS011;13668;52.154;5.580;2023-03-26T04:53:20;56.95;;;13.70;;
24357;SDS011;13668;52.154;5.580;2023-03-26T04:55:50;41.05;;;14.63;;
24357;SDS011;13668;52.154;5.580;2023-03-26T04:58:17;44.83;;;15.50;;
24357;SDS011;13668;52.154;5.580;2023-03-26T05:00:44;44.35;;;12.30;;
24357;SDS011;13668;52.154;5.580;2023-03-26T05:03:11;42.63;;;12.70;;
24357;SDS011;13668;52.154;5.580;2023-03-26T05:05:37;44.58;;;13.30;;
24357;SDS011;13668;52.154;5.580;2023-03-26T05:08:04;37.35;;;12.70;;
24357;SDS011;13668;52.154;5.580;2023-03-26T05:10:30;42.83;;;12.32;;
24357;SDS011;13668;52.154;5.580;2023-03-26T05:12:57;40.53;;;12.80;;
24357;SDS011;13668;52.154;5.580;2023-03-26T05:15:23;33.38;;;11.77;;
24357;SDS011;13668;52.154;5.580;2023-03-26T05:17:49;38.60;;;13.15;;
24357;SDS011;13668;52.154;5.580;2023-03-26T05:20:23;35.65;;;11.77;;
24357;SDS011;13668;52.154;5.580;2023-03-26T05:22:50;43.70;;;13.60;;
24357;SDS011;13668;52.154;5.580;2023-03-26T05:25:16;44.05;;;14.13;;
24357;SDS011;13668;52.154;5.580;2023-03-26T05:27:42;38.75;;;12.80;;
24357;SDS011;13668;52.154;5.580;2023-03-26T05:30:09;50.65;;;13.60;;
24357;SDS011;13668;52.154;5.580;2023-03-26T05:32:40;43.67;;;12.77;;
24357;SDS011;13668;52.154;5.580;2023-03-26T05:35:06;41.95;;;13.88;;
24357;SDS011;13668;52.154;5.580;2023-03-26T05:37:32;38.72;;;13.02;;
24357;SDS011;13668;52.154;5.580;2023-03-26T05:39:58;44.70;;;13.50;;
24357;SDS011;13668;52.154;5.580;2023-03-26T05:42:25;40.80;;;14.18;;
24357;SDS011;13668;52.154;5.580;2023-03-26T05:44:51;46.95;;;13.80;;
24357;SDS011;13668;52.154;5.580;2023-03-26T05:47:17;40.47;;;13.65;;
24357;SDS011;13668;52.154;5.580;2023-03-26T05:49:43;40.35;;;14.75;;
24357;SDS011;13668;52.154;5.580;2023-03-26T05:52:10;35.10;;;12.50;;
24357;SDS011;13668;52.154;5.580;2023-03-26T05:54:39;32.35;;;11.98;;
24357;SDS011;13668;52.154;5.580;2023-03-26T05:57:05;33.50;;;12.35;;
24357;SDS011;13668;52.154;5.580;2023-03-26T05:59:31;39.78;;;12.25;;
24357;SDS011;13668;52.154;5.580;2023-03-26T06:01:57;34.17;;;11.25;;
24357;SDS011;13668;52.154;5.580;2023-03-26T06:04:23;42.03;;;13.40;;
24357;SDS011;13668;52.154;5.580;2023-03-26T06:06:49;38.40;;;13.48;;
24357;SDS011;13668;52.154;5.580;2023-03-26T06:09:16;32.63;;;12.63;;
24357;SDS011;13668;52.154;5.580;2023-03-26T06:11:42;48.10;;;14.70;;
24357;SDS011;13668;52.154;5.580;2023-03-26T06:14:08;30.63;;;12.77;;
24357;SDS011;13668;52.154;5.580;2023-03-26T06:16:34;38.42;;;13.55;;
24357;SDS011;13668;52.154;5.580;2023-03-26T06:19:00;40.30;;;12.32;;
24357;SDS011;13668;52.154;5.580;2023-03-26T06:21:26;43.20;;;13.88;;
24357;SDS011;13668;52.154;5.580;2023-03-26T06:23:53;41.17;;;14.48;;
24357;SDS011;13668;52.154;5.580;2023-03-26T06:26:19;35.65;;;12.73;;
24357;SDS011;13668;52.154;5.580;2023-03-26T06:28:45;39.67;;;12.23;;
24357;SDS011;13668;52.154;5.580;2023-03-26T06:31:11;36.17;;;11.38;;
24357;SDS011;13668;52.154;5.580;2023-03-26T06:33:40;34.85;;;11.77;;
24357;SDS011;13668;52.154;5.580;2023-03-26T06:36:06;44.90;;;13.38;;
24357;SDS011;13668;52.154;5.580;2023-03-26T06:38:32;31.52;;;11.77;;
24357;SDS011;13668;52.154;5.580;2023-03-26T06:41:02;36.45;;;12.35;;
24357;SDS011;13668;52.154;5.580;2023-03-26T06:43:28;41.80;;;11.52;;
24357;SDS011;13668;52.154;5.580;2023-03-26T06:45:57;49.58;;;12.55;;
24357;SDS011;13668;52.154;5.580;2023-03-26T06:48:23;38.13;;;12.63;;
24357;SDS011;13668;52.154;5.580;2023-03-26T06:50:49;39.08;;;11.98;;
24357;SDS011;13668;52.154;5.580;2023-03-26T06:53:15;35.50;;;11.70;;
24357;SDS011;13668;52.154;5.580;2023-03-26T06:55:41;34.80;;;10.60;;
24357;SDS011;13668;52.154;5.580;2023-03-26T06:58:08;37.67;;;12.60;;
24357;SDS011;13668;52.154;5.580;2023-03-26T07:00:35;31.65;;;11.48;;
24357;SDS011;13668;52.154;5.580;2023-03-26T07:03:02;33.33;;;12.10;;
24357;SDS011;13668;52.154;5.580;2023-03-26T07:05:28;38.83;;;12.10;;
24357;SDS011;13668;52.154;5.580;2023-03-26T07:07:54;43.20;;;13.95;;
24357;SDS011;13668;52.154;5.580;2023-03-26T07:10:20;36.40;;;13.15;;
24357;SDS011;13668;52.154;5.580;2023-03-26T07:12:46;43.22;;;13.88;;
24357;SDS011;13668;52.154;5.580;2023-03-26T07:15:12;37.55;;;13.70;;
24357;SDS011;13668;52.154;5.580;2023-03-26T07:17:38;42.08;;;13.13;;
24357;SDS011;13668;52.154;5.580;2023-03-26T07:20:04;39.70;;;14.00;;
24357;SDS011;13668;52.154;5.580;2023-03-26T07:22:31;34.95;;;14.18;;
24357;SDS011;13668;52.154;5.580;2023-03-26T07:24:57;36.30;;;13.15;;
24357;SDS011;13668;52.154;5.580;2023-03-26T07:27:36;33.70;;;11.63;;
24357;SDS011;13668;52.154;5.580;2023-03-26T07:32:45;32.33;;;12.02;;
24357;SDS011;13668;52.154;5.580;2023-03-26T07:35:20;29.52;;;10.73;;
24357;SDS011;13668;52.154;5.580;2023-03-26T07:38:01;30.60;;;11.50;;
24357;SDS011;13668;52.154;5.580;2023-03-26T07:45:29;32.05;;;11.45;;
24357;SDS011;13668;52.154;5.580;2023-03-26T07:47:58;35.45;;;12.32;;
24357;SDS011;13668;52.154;5.580;2023-03-26T07:50:24;33.95;;;12.43;;
24357;SDS011;13668;52.154;5.580;2023-03-26T07:52:51;32.47;;;13.00;;
24357;SDS011;13668;52.154;5.580;2023-03-26T07:55:17;31.00;;;11.27;;
24357;SDS011;13668;52.154;5.580;2023-03-26T08:00:29;38.03;;;13.55;;
24357;SDS011;13668;52.154;5.580;2023-03-26T08:14:06;36.95;;;13.60;;
24357;SDS011;13668;52.154;5.580;2023-03-26T08:16:13;31.10;;;13.82;;
24357;SDS011;13668;52.154;5.580;2023-03-26T08:18:46;29.65;;;13.73;;
24357;SDS011;13668;52.154;5.580;2023-03-26T08:21:25;28.10;;;14.20;;
24357;SDS011;13668;52.154;5.580;2023-03-26T08:31:45;30.05;;;14.63;;
24357;SDS011;13668;52.154;5.580;2023-03-26T08:34:13;38.17;;;15.68;;
24357;SDS011;13668;52.154;5.580;2023-03-26T08:36:39;39.95;;;16.67;;
24357;SDS011;13668;52.154;5.580;2023-03-26T08:39:05;38.50;;;15.93;;
24357;SDS011;13668;52.154;5.580;2023-03-26T08:41:57;41.88;;;16.25;;
24357;SDS011;13668;52.154;5.580;2023-03-26T08:52:35;35.25;;;16.00;;
24357;SDS011;13668;52.154;5.580;2023-03-26T08:57:54;41.17;;;17.30;;
24357;SDS011;13668;52.154;5.580;2023-03-26T09:03:09;45.72;;;16.33;;
24357;SDS011;13668;52.154;5.580;2023-03-26T09:26:17;30.55;;;14.55;;
24357;SDS011;13668;52.154;5.580;2023-03-26T09:45:15;25.20;;;13.07;;
24357;SDS011;13668;52.154;5.580;2023-03-26T09:47:31;34.60;;;14.00;;
24357;SDS011;13668;52.154;5.580;2023-03-26T09:52:40;26.83;;;11.65;;
24357;SDS011;13668;52.154;5.580;2023-03-26T09:55:51;30.77;;;12.93;;
24357;SDS011;13668;52.154;5.580;2023-03-26T10:24:44;17.33;;;8.02;;
24357;SDS011;13668;52.154;5.580;2023-03-26T10:30:05;12.65;;;6.85;;
24357;SDS011;13668;52.154;5.580;2023-03-26T10:35:14;17.42;;;7.10;;
24357;SDS011;13668;52.154;5.580;2023-03-26T10:37:56;10.95;;;7.30;;
24357;SDS011;13668;52.154;5.580;2023-03-26T10:59:10;11.77;;;6.15;;
24357;SDS011;13668;52.154;5.580;2023-03-26T11:01:41;15.77;;;6.63;;
24357;SDS011;13668;52.154;5.580;2023-03-26T11:14:42;14.43;;;6.05;;
24357;SDS011;13668;52.154;5.580;2023-03-26T11:17:16;19.58;;;5.68;;
24357;SDS011;13668;52.154;5.580;2023-03-26T11:27:06;13.57;;;4.97;;
24357;SDS011;13668;52.154;5.580;2023-03-26T11:32:23;15.00;;;4.68;;
24357;SDS011;13668;52.154;5.580;2023-03-26T11:35:05;13.73;;;4.22;;
24357;SDS011;13668;52.154;5.580;2023-03-26T11:37:33;18.10;;;4.32;;
24357;SDS011;13668;52.154;5.580;2023-03-26T11:40:05;12.20;;;3.85;;
24357;SDS011;13668;52.154;5.580;2023-03-26T11:42:33;12.10;;;3.75;;
24357;SDS011;13668;52.154;5.580;2023-03-26T11:45:04;12.52;;;4.07;;
24357;SDS011;13668;52.154;5.580;2023-03-26T11:47:32;16.33;;;4.28;;
24357;SDS011;13668;52.154;5.580;2023-03-26T11:50:01;10.40;;;3.40;;
24357;SDS011;13668;52.154;5.580;2023-03-26T11:52:28;15.13;;;4.28;;
24357;SDS011;13668;52.154;5.580;2023-03-26T11:54:54;16.80;;;3.85;;
24357;SDS011;13668;52.154;5.580;2023-03-26T11:57:24;11.25;;;3.95;;
24357;SDS011;13668;52.154;5.580;2023-03-26T12:02:36;15.57;;;3.83;;
24357;SDS011;13668;52.154;5.580;2023-03-26T12:07:35;15.82;;;3.95;;
24357;SDS011;13668;52.154;5.580;2023-03-26T12:10:17;15.73;;;5.57;;
24357;SDS011;13668;52.154;5.580;2023-03-26T12:12:45;10.75;;;4.32;;
24357;SDS011;13668;52.154;5.580;2023-03-26T12:15:16;9.60;;;3.47;;
24357;SDS011;13668;52.154;5.580;2023-03-26T12:17:43;15.10;;;3.85;;
24357;SDS011;13668;52.154;5.580;2023-03-26T12:22:54;12.50;;;3.50;;
24357;SDS011;13668;52.154;5.580;2023-03-26T12:25:24;9.98;;;2.92;;
24357;SDS011;13668;52.154;5.580;2023-03-26T12:30:21;14.02;;;3.25;;
24357;SDS011;13668;52.154;5.580;2023-03-26T12:32:48;12.13;;;3.00;;
24357;SDS011;13668;52.154;5.580;2023-03-26T12:35:27;10.18;;;3.05;;
24357;SDS011;13668;52.154;5.580;2023-03-26T12:37:54;5.93;;;2.72;;
24357;SDS011;13668;52.154;5.580;2023-03-26T12:40:31;11.45;;;2.53;;
24357;SDS011;13668;52.154;5.580;2023-03-26T12:43:00;11.27;;;3.03;;
24357;SDS011;13668;52.154;5.580;2023-03-26T12:45:36;8.93;;;3.00;;
24357;SDS011;13668;52.154;5.580;2023-03-26T12:48:03;10.25;;;2.95;;
24357;SDS011;13668;52.154;5.580;2023-03-26T12:53:15;9.98;;;2.67;;
24357;SDS011;13668;52.154;5.580;2023-03-26T12:55:52;13.95;;;2.88;;
24357;SDS011;13668;52.154;5.580;2023-03-26T13:01:00;12.75;;;2.85;;
24357;SDS011;13668;52.154;5.580;2023-03-26T13:04:30;15.20;;;3.00;;
24357;SDS011;13668;52.154;5.580;2023-03-26T13:06:42;9.10;;;2.40;;
24357;SDS011;13668;52.154;5.580;2023-03-26T13:11:45;10.05;;;2.50;;
24357;SDS011;13668;52.154;5.580;2023-03-26T13:20:00;13.48;;;3.20;;
24357;SDS011;13668;52.154;5.580;2023-03-26T13:35:28;10.50;;;2.30;;
24357;SDS011;13668;52.154;5.580;2023-03-26T13:48:27;7.57;;;2.10;;
24357;SDS011;13668;52.154;5.580;2023-03-26T13:51:05;6.57;;;2.20;;
24357;SDS011;13668;52.154;5.580;2023-03-26T13:54:08;10.23;;;1.98;;
24357;SDS011;13668;52.154;5.580;2023-03-26T13:56:33;8.95;;;1.92;;
24357;SDS011;13668;52.154;5.580;2023-03-26T13:59:00;7.38;;;2.00;;
24357;SDS011;13668;52.154;5.580;2023-03-26T14:01:29;6.05;;;2.08;;
24357;SDS011;13668;52.154;5.580;2023-03-26T14:04:18;9.82;;;1.95;;
24357;SDS011;13668;52.154;5.580;2023-03-26T14:06:50;8.48;;;1.90;;
24357;SDS011;13668;52.154;5.580;2023-03-26T14:14:18;8.57;;;2.20;;
24357;SDS011;13668;52.154;5.580;2023-03-26T14:16:49;8.48;;;2.33;;
24357;SDS011;13668;52.154;5.580;2023-03-26T14:27:18;26.05;;;11.00;;
24357;SDS011;13668;52.154;5.580;2023-03-26T14:29:58;9.95;;;3.63;;
24357;SDS011;13668;52.154;5.580;2023-03-26T14:32:31;13.63;;;5.80;;
24357;SDS011;13668;52.154;5.580;2023-03-26T14:35:03;6.18;;;3.65;;
24357;SDS011;13668;52.154;5.580;2023-03-26T14:42:42;8.20;;;2.55;;
24357;SDS011;13668;52.154;5.580;2023-03-26T14:48:17;8.05;;;3.40;;
24357;SDS011;13668;52.154;5.580;2023-03-26T14:53:27;10.68;;;3.10;;
24357;SDS011;13668;52.154;5.580;2023-03-26T15:01:21;14.80;;;7.13;;
24357;SDS011;13668;52.154;5.580;2023-03-26T15:11:52;5.95;;;2.47;;
24357;SDS011;13668;52.154;5.580;2023-03-26T15:16:57;13.10;;;2.75;;
24357;SDS011;13668;52.154;5.580;2023-03-26T15:24:48;10.60;;;3.42;;
24357;SDS011;13668;52.154;5.580;2023-03-26T15:40:16;10.75;;;3.00;;
24357;SDS011;13668;52.154;5.580;2023-03-26T15:42:59;7.53;;;2.80;;
24357;SDS011;13668;52.154;5.580;2023-03-26T15:53:26;11.48;;;2.40;;
24357;SDS011;13668;52.154;5.580;2023-03-26T15:58:23;10.30;;;2.20;;
24357;SDS011;13668;52.154;5.580;2023-03-26T16:00:55;6.82;;;2.00;;
24357;SDS011;13668;52.154;5.580;2023-03-26T16:06:19;7.00;;;2.08;;
24357;SDS011;13668;52.154;5.580;2023-03-26T16:09:16;16.35;;;7.25;;
24357;SDS011;13668;52.154;5.580;2023-03-26T16:11:53;5.68;;;3.85;;
24357;SDS011;13668;52.154;5.580;2023-03-26T16:14:38;12.85;;;2.60;;
24357;SDS011;13668;52.154;5.580;2023-03-26T16:17:10;8.10;;;2.15;;
24357;SDS011;13668;52.154;5.580;2023-03-26T16:22:11;10.38;;;2.30;;
24357;SDS011;13668;52.154;5.580;2023-03-26T16:24:42;5.35;;;2.20;;
24357;SDS011;13668;52.154;5.580;2023-03-26T16:32:24;15.80;;;2.58;;
24357;SDS011;13668;52.154;5.580;2023-03-26T16:45:28;9.70;;;1.98;;
24357;SDS011;13668;52.154;5.580;2023-03-26T16:48:04;9.27;;;1.65;;
24357;SDS011;13668;52.154;5.580;2023-03-26T16:50:45;8.25;;;1.98;;
24357;SDS011;13668;52.154;5.580;2023-03-26T16:53:19;7.50;;;2.00;;
24357;SDS011;13668;52.154;5.580;2023-03-26T16:56:01;9.95;;;1.65;;
24357;SDS011;13668;52.154;5.580;2023-03-26T16:58:37;9.75;;;2.00;;
24357;SDS011;13668;52.154;5.580;2023-03-26T17:01:33;4.20;;;1.17;;
24357;SDS011;13668;52.154;5.580;2023-03-26T17:03:59;10.18;;;2.42;;
24357;SDS011;13668;52.154;5.580;2023-03-26T17:09:27;8.63;;;1.65;;
24357;SDS011;13668;52.154;5.580;2023-03-26T17:17:08;5.20;;;1.70;;
24357;SDS011;13668;52.154;5.580;2023-03-26T17:22:10;5.53;;;1.55;;
24357;SDS011;13668;52.154;5.580;2023-03-26T17:27:35;11.98;;;2.00;;
24357;SDS011;13668;52.154;5.580;2023-03-26T17:35:43;9.40;;;1.88;;
24357;SDS011;13668;52.154;5.580;2023-03-26T17:40:46;9.02;;;1.80;;
24357;SDS011;13668;52.154;5.580;2023-03-26T17:46:04;11.82;;;5.00;;
24357;SDS011;13668;52.154;5.580;2023-03-26T17:48:37;8.90;;;4.60;;
24357;SDS011;13668;52.154;5.580;2023-03-26T17:51:16;11.40;;;4.60;;
24357;SDS011;13668;52.154;5.580;2023-03-26T17:53:45;9.18;;;3.58;;
24357;SDS011;13668;52.154;5.580;2023-03-26T17:56:13;17.90;;;5.55;;
24357;SDS011;13668;52.154;5.580;2023-03-26T17:58:43;6.20;;;2.40;;
24357;SDS011;13668;52.154;5.580;2023-03-26T18:03:57;12.48;;;4.45;;
24357;SDS011;13668;52.154;5.580;2023-03-26T18:14:38;13.70;;;3.63;;
24357;SDS011;13668;52.154;5.580;2023-03-26T18:17:08;13.80;;;3.72;;
24357;SDS011;13668;52.154;5.580;2023-03-26T18:19:45;6.70;;;2.58;;
24357;SDS011;13668;52.154;5.580;2023-03-26T18:22:15;6.90;;;1.85;;
24357;SDS011;13668;52.154;5.580;2023-03-26T18:24:42;10.95;;;3.08;;
24357;SDS011;13668;52.154;5.580;2023-03-26T18:27:10;9.05;;;3.95;;
24357;SDS011;13668;52.154;5.580;2023-03-26T18:29:36;9.60;;;2.90;;
24357;SDS011;13668;52.154;5.580;2023-03-26T18:34:33;6.53;;;3.58;;
24357;SDS011;13668;52.154;5.580;2023-03-26T18:39:36;7.97;;;2.33;;
24357;SDS011;13668;52.154;5.580;2023-03-26T18:42:02;6.20;;;2.03;;
24357;SDS011;13668;52.154;5.580;2023-03-26T18:44:28;9.82;;;2.28;;
24357;SDS011;13668;52.154;5.580;2023-03-26T18:46:54;10.38;;;2.10;;
24357;SDS011;13668;52.154;5.580;2023-03-26T18:49:21;9.85;;;1.92;;
24357;SDS011;13668;52.154;5.580;2023-03-26T18:51:48;10.43;;;2.28;;
24357;SDS011;13668;52.154;5.580;2023-03-26T18:54:15;8.23;;;2.00;;
24357;SDS011;13668;52.154;5.580;2023-03-26T18:56:43;11.45;;;1.98;;
24357;SDS011;13668;52.154;5.580;2023-03-26T18:59:30;9.93;;;1.73;;
24357;SDS011;13668;52.154;5.580;2023-03-26T19:01:57;5.80;;;1.77;;
24357;SDS011;13668;52.154;5.580;2023-03-26T19:04:25;8.93;;;1.92;;
24357;SDS011;13668;52.154;5.580;2023-03-26T19:06:54;7.55;;;1.90;;
24357;SDS011;13668;52.154;5.580;2023-03-26T19:09:21;6.90;;;1.50;;
24357;SDS011;13668;52.154;5.580;2023-03-26T19:11:48;7.35;;;1.70;;
24357;SDS011;13668;52.154;5.580;2023-03-26T19:14:18;8.27;;;1.73;;
24357;SDS011;13668;52.154;5.580;2023-03-26T19:16:46;4.47;;;2.13;;
24357;SDS011;13668;52.154;5.580;2023-03-26T19:19:18;9.30;;;1.98;;
24357;SDS011;13668;52.154;5.580;2023-03-26T19:21:46;9.27;;;2.58;;
24357;SDS011;13668;52.154;5.580;2023-03-26T19:24:13;12.10;;;2.30;;
24357;SDS011;13668;52.154;5.580;2023-03-26T19:26:40;12.63;;;3.75;;
24357;SDS011;13668;52.154;5.580;2023-03-26T19:29:07;15.90;;;4.13;;
24357;SDS011;13668;52.154;5.580;2023-03-26T19:31:35;14.40;;;3.30;;
24357;SDS011;13668;52.154;5.580;2023-03-26T19:36:32;19.70;;;6.80;;
24357;SDS011;13668;52.154;5.580;2023-03-26T19:41:25;24.25;;;6.68;;
24357;SDS011;13668;52.154;5.580;2023-03-26T19:43:55;17.35;;;5.70;;
24357;SDS011;13668;52.154;5.580;2023-03-26T19:46:23;14.95;;;5.93;;
24357;SDS011;13668;52.154;5.580;2023-03-26T19:48:51;17.15;;;6.05;;
24357;SDS011;13668;52.154;5.580;2023-03-26T19:51:19;20.38;;;7.38;;
24357;SDS011;13668;52.154;5.580;2023-03-26T19:53:51;27.25;;;8.07;;
24357;SDS011;13668;52.154;5.580;2023-03-26T19:56:18;18.23;;;7.10;;
24357;SDS011;13668;52.154;5.580;2023-03-26T19:58:44;17.17;;;7.25;;
24357;SDS011;13668;52.154;5.580;2023-03-26T20:01:18;23.80;;;5.78;;
24357;SDS011;13668;52.154;5.580;2023-03-26T20:03:45;16.75;;;4.70;;
24357;SDS011;13668;52.154;5.580;2023-03-26T20:06:13;10.52;;;4.18;;
24357;SDS011;13668;52.154;5.580;2023-03-26T20:08:39;15.75;;;4.13;;
24357;SDS011;13668;52.154;5.580;2023-03-26T20:11:11;18.48;;;5.63;;
24357;SDS011;13668;52.154;5.580;2023-03-26T20:13:37;28.23;;;10.32;;
24357;SDS011;13668;52.154;5.580;2023-03-26T20:16:06;9.95;;;3.28;;
24357;SDS011;13668;52.154;5.580;2023-03-26T20:18:34;11.55;;;3.75;;
24357;SDS011;13668;52.154;5.580;2023-03-26T20:21:01;15.15;;;6.10;;
24357;SDS011;13668;52.154;5.580;2023-03-26T20:23:27;14.68;;;6.97;;
24357;SDS011;13668;52.154;5.580;2023-03-26T20:25:53;11.00;;;3.88;;
24357;SDS011;13668;52.154;5.580;2023-03-26T20:28:19;14.70;;;4.65;;
24357;SDS011;13668;52.154;5.580;2023-03-26T20:30:46;12.90;;;5.28;;
24357;SDS011;13668;52.154;5.580;2023-03-26T20:33:19;20.42;;;7.35;;
24357;SDS011;13668;52.154;5.580;2023-03-26T20:35:46;14.73;;;3.10;;
24357;SDS011;13668;52.154;5.580;2023-03-26T20:38:12;11.65;;;4.55;;
24357;SDS011;13668;52.154;5.580;2023-03-26T20:40:38;10.38;;;2.97;;